createdAt,value
2022-11-06T00:00:16.910Z,5.38
2022-11-06T00:06:00.496Z,5.29
2022-11-06T00:11:21.577Z,5.22
2022-11-06T00:16:42.478Z,5.45
2022-11-06T00:22:03.381Z,5.34
2022-11-06T00:27:23.993Z,5.25
2022-11-06T00:32:44.911Z,5.27
2022-11-06T00:38:06.437Z,5.29
2022-11-06T00:43:27.337Z,5.30
2022-11-06T00:48:48.404Z,5.24
2022-11-06T00:54:13.406Z,5.15
2022-11-06T00:59:34.000Z,5.11
2022-11-06T01:04:54.666Z,5.01
2022-11-06T01:10:15.561Z,4.96
2022-11-06T01:15:36.438Z,4.82
2022-11-06T01:20:56.926Z,4.94
2022-11-06T01:26:28.974Z,5.05
2022-11-06T01:31:57.864Z,4.99
2022-11-06T01:37:18.593Z,4.97
2022-11-06T01:42:39.540Z,4.94
2022-11-06T01:48:00.499Z,4.80
2022-11-06T01:53:21.992Z,4.86
2022-11-06T01:58:43.970Z,5.05
2022-11-06T02:04:32.980Z,5.17
2022-11-06T02:09:53.426Z,5.01
2022-11-06T02:15:20.433Z,4.81
2022-11-06T02:21:00.072Z,4.68
2022-11-06T02:26:20.945Z,4.61
2022-11-06T02:31:42.328Z,4.54
2022-11-06T02:37:08.024Z,4.49
2022-11-06T02:42:29.683Z,4.35
2022-11-06T02:47:54.530Z,4.29
2022-11-06T02:53:16.718Z,4.33
2022-11-06T02:58:46.174Z,4.30
2022-11-06T03:04:13.779Z,4.12
2022-11-06T03:09:35.137Z,4.12
2022-11-06T03:15:14.601Z,4.19
2022-11-06T03:20:37.151Z,4.26
2022-11-06T03:26:18.216Z,4.24
2022-11-06T03:31:59.216Z,4.28
2022-11-06T03:37:25.232Z,4.02
2022-11-06T03:42:48.010Z,3.70
2022-11-06T03:48:20.065Z,3.84
2022-11-06T03:53:52.772Z,3.77
2022-11-06T03:59:15.502Z,3.88
2022-11-06T04:04:43.468Z,3.92
2022-11-06T04:10:25.061Z,3.88
2022-11-06T04:15:49.416Z,4.02
2022-11-06T04:21:27.048Z,4.08
2022-11-06T04:26:59.889Z,4.03
2022-11-06T04:32:23.943Z,4.02
2022-11-06T04:38:11.545Z,4.10
2022-11-06T04:43:40.668Z,4.16
2022-11-06T04:49:02.862Z,4.18
2022-11-06T04:54:24.007Z,4.18
2022-11-06T04:59:44.645Z,4.22
2022-11-06T05:05:05.845Z,4.30
2022-11-06T05:10:26.873Z,4.23
2022-11-06T05:15:47.664Z,3.93
2022-11-06T05:21:28.424Z,3.79
2022-11-06T05:26:50.543Z,3.93
2022-11-06T05:32:12.997Z,3.97
2022-11-06T05:37:33.989Z,4.06
2022-11-06T05:42:54.854Z,3.94
2022-11-06T05:48:16.203Z,3.65
2022-11-06T05:53:37.265Z,3.38
2022-11-06T05:58:58.209Z,3.26
2022-11-06T06:04:18.916Z,3.38
2022-11-06T06:09:39.868Z,3.51
2022-11-06T06:15:00.463Z,3.65
2022-11-06T06:20:21.082Z,3.61
2022-11-06T06:25:42.018Z,3.54
2022-11-06T06:31:06.690Z,3.58
2022-11-06T06:36:27.581Z,3.56
2022-11-06T06:41:48.914Z,3.18
2022-11-06T06:47:09.585Z,3.14
2022-11-06T06:52:30.630Z,3.04
2022-11-06T06:57:58.390Z,3.29
2022-11-06T07:03:19.188Z,3.33
2022-11-06T07:08:40.096Z,3.33
2022-11-06T07:14:01.139Z,3.19
2022-11-06T07:19:21.899Z,3.04
2022-11-06T07:24:42.528Z,2.92
2022-11-06T07:30:03.905Z,2.98
2022-11-06T07:35:25.822Z,3.08
2022-11-06T07:40:46.528Z,3.24
2022-11-06T07:46:08.875Z,3.33
2022-11-06T07:51:29.869Z,3.37
2022-11-06T07:56:50.569Z,3.45
2022-11-06T08:02:14.826Z,3.64
2022-11-06T08:07:35.640Z,3.65
2022-11-06T08:12:56.241Z,3.75
2022-11-06T08:18:17.454Z,3.84
2022-11-06T08:23:38.362Z,3.86
2022-11-06T08:28:58.991Z,3.94
2022-11-06T08:34:19.584Z,4.07
2022-11-06T08:39:40.563Z,4.23
2022-11-06T08:45:01.269Z,4.41
2022-11-06T08:50:22.097Z,4.58
2022-11-06T08:55:42.957Z,4.72
2022-11-06T09:01:03.893Z,4.77
2022-11-06T09:06:25.498Z,4.92
2022-11-06T09:11:46.270Z,4.95
2022-11-06T09:17:07.308Z,5.16
2022-11-06T09:22:27.906Z,5.37
2022-11-06T09:27:53.144Z,5.46
2022-11-06T09:33:18.601Z,5.54
2022-11-06T09:38:39.634Z,7.31
2022-11-06T09:44:05.969Z,8.13
2022-11-06T09:49:33.168Z,8.53
2022-11-06T09:55:00.743Z,8.79
2022-11-06T10:00:22.811Z,9.43
2022-11-06T10:05:45.690Z,9.96
2022-11-06T10:11:15.727Z,9.26
2022-11-06T10:16:42.718Z,9.43
2022-11-06T10:22:23.847Z,9.49
2022-11-06T10:28:03.299Z,9.92
2022-11-06T10:33:24.026Z,10.15
2022-11-06T10:38:47.398Z,10.13
2022-11-06T10:44:14.020Z,10.28
2022-11-06T10:49:45.665Z,10.16
2022-11-06T10:55:25.399Z,10.40
2022-11-06T11:00:46.613Z,10.30
2022-11-06T11:06:07.575Z,10.30
2022-11-06T11:11:29.322Z,10.17
2022-11-06T11:16:50.088Z,10.33
2022-11-06T11:22:13.871Z,10.54
2022-11-06T11:27:52.642Z,10.92
2022-11-06T11:33:13.751Z,10.98
2022-11-06T11:38:39.497Z,10.72
2022-11-06T11:44:07.416Z,10.55
2022-11-06T11:49:28.506Z,10.57
2022-11-06T11:54:53.943Z,10.51
2022-11-06T12:00:16.648Z,10.60
2022-11-06T12:05:39.525Z,10.72
2022-11-06T12:11:04.595Z,10.59
2022-11-06T12:16:25.464Z,10.50
2022-11-06T12:21:48.989Z,10.41
2022-11-06T12:27:29.798Z,10.28
2022-11-06T12:33:03.260Z,10.17
2022-11-06T12:38:35.375Z,10.21
2022-11-06T12:43:57.044Z,10.17
2022-11-06T12:49:23.673Z,10.07
2022-11-06T12:55:03.242Z,10.05
2022-11-06T13:00:31.174Z,10.03
2022-11-06T13:06:00.762Z,10.03
2022-11-06T13:11:21.379Z,10.13
2022-11-06T13:16:42.086Z,9.99
2022-11-06T13:22:15.151Z,10.01
2022-11-06T13:27:39.031Z,10.09
2022-11-06T13:33:17.464Z,10.12
2022-11-06T13:38:41.285Z,10.16
2022-11-06T13:44:03.761Z,10.19
2022-11-06T13:49:43.028Z,10.19
2022-11-06T13:55:19.302Z,10.19
2022-11-06T14:00:45.920Z,10.18
2022-11-06T14:06:09.451Z,10.16
2022-11-06T14:11:34.840Z,10.14
2022-11-06T14:17:09.907Z,10.17
2022-11-06T14:22:30.490Z,10.11
2022-11-06T14:27:52.015Z,10.09
2022-11-06T14:33:33.485Z,9.88
2022-11-06T14:38:54.797Z,9.74
2022-11-06T14:44:22.264Z,9.55
2022-11-06T14:49:46.314Z,9.42
2022-11-06T14:55:07.670Z,9.37
2022-11-06T15:00:47.029Z,9.25
2022-11-06T15:06:20.977Z,9.16
2022-11-06T15:11:47.926Z,9.20
2022-11-06T15:17:13.033Z,9.43
2022-11-06T15:22:37.184Z,10.02
2022-11-06T15:28:05.025Z,9.72
2022-11-06T15:33:33.250Z,9.65
2022-11-06T15:38:54.117Z,9.32
2022-11-06T15:44:19.020Z,9.09
2022-11-06T15:49:39.724Z,8.93
2022-11-06T15:55:06.425Z,8.89
2022-11-06T16:00:27.618Z,8.99
2022-11-06T16:05:48.675Z,8.85
2022-11-06T16:11:14.479Z,8.79
2022-11-06T16:16:35.099Z,8.82
2022-11-06T16:22:15.951Z,8.98
2022-11-06T16:27:37.681Z,9.39
2022-11-06T16:32:58.292Z,9.20
2022-11-06T16:38:45.316Z,9.15
2022-11-06T16:44:19.882Z,9.14
2022-11-06T16:49:50.274Z,9.04
2022-11-06T16:55:17.409Z,9.04
2022-11-06T17:00:38.494Z,8.84
2022-11-06T17:05:59.346Z,8.65
2022-11-06T17:11:23.350Z,8.51
2022-11-06T17:16:51.729Z,8.67
2022-11-06T17:22:12.442Z,8.69
2022-11-06T17:27:33.037Z,8.58
2022-11-06T17:32:53.888Z,8.47
2022-11-06T17:38:15.251Z,8.21
2022-11-06T17:43:36.350Z,7.81
2022-11-06T17:48:56.898Z,7.77
2022-11-06T17:54:18.423Z,7.50
2022-11-06T17:59:39.474Z,7.33
2022-11-06T18:05:00.275Z,7.47
2022-11-06T18:10:22.884Z,7.51
2022-11-06T18:15:46.765Z,7.35
2022-11-06T18:21:07.315Z,7.28
2022-11-06T18:26:28.101Z,7.16
2022-11-06T18:31:49.098Z,7.09
2022-11-06T18:37:09.697Z,7.11
2022-11-06T18:42:30.319Z,7.16
2022-11-06T18:47:51.259Z,7.10
2022-11-06T18:53:13.953Z,7.10
2022-11-06T18:58:35.086Z,7.28
2022-11-06T19:03:55.845Z,7.23
2022-11-06T19:09:16.800Z,7.15
2022-11-06T19:14:37.737Z,7.32
2022-11-06T19:19:59.831Z,7.13
2022-11-06T19:25:21.093Z,7.18
2022-11-06T19:30:41.937Z,7.16
2022-11-06T19:36:02.995Z,7.14
2022-11-06T19:41:23.280Z,7.32
2022-11-06T19:46:44.553Z,7.36
2022-11-06T19:52:42.859Z,7.45
2022-11-06T19:57:46.265Z,7.37
2022-11-06T20:03:08.403Z,7.28
2022-11-06T20:08:29.199Z,7.40
2022-11-06T20:13:50.337Z,7.77
2022-11-06T20:19:11.099Z,7.38
2022-11-06T20:24:32.122Z,7.28
2022-11-06T20:29:53.218Z,7.43
2022-11-06T20:35:16.845Z,7.48
2022-11-06T20:40:37.652Z,7.35
2022-11-06T20:46:01.835Z,7.33
2022-11-06T20:51:24.152Z,7.15
2022-11-06T20:56:48.541Z,7.19
2022-11-06T21:02:12.491Z,7.17
2022-11-06T21:07:33.165Z,7.13
2022-11-06T21:12:53.851Z,7.12
2022-11-06T21:18:14.737Z,6.96
2022-11-06T21:23:35.800Z,6.93
2022-11-06T21:28:56.906Z,6.66
2022-11-06T21:34:18.767Z,6.58
2022-11-06T21:39:39.489Z,6.61
2022-11-06T21:45:00.360Z,6.47
2022-11-06T21:50:28.222Z,6.58
2022-11-06T21:55:59.436Z,6.62
2022-11-06T22:01:20.600Z,6.68
2022-11-06T22:06:42.755Z,6.74
2022-11-06T22:12:03.354Z,6.49
2022-11-06T22:17:24.896Z,6.43
2022-11-06T22:22:45.707Z,6.58
2022-11-06T22:28:06.843Z,6.26
2022-11-06T22:33:28.223Z,6.01
2022-11-06T22:38:49.556Z,6.07
2022-11-06T22:44:10.488Z,6.31
2022-11-06T22:49:31.123Z,6.19
2022-11-06T22:54:52.061Z,6.13
2022-11-06T23:00:13.483Z,5.97
2022-11-06T23:05:38.184Z,6.01
2022-11-06T23:10:59.460Z,5.87
2022-11-06T23:16:41.858Z,5.80
2022-11-06T23:22:21.332Z,5.82
2022-11-06T23:27:47.022Z,5.89
2022-11-06T23:33:10.417Z,5.84
2022-11-06T23:38:31.444Z,5.71
2022-11-06T23:43:52.440Z,5.81
2022-11-06T23:49:13.025Z,6.00
2022-11-06T23:54:33.772Z,6.04
2022-11-06T23:59:54.566Z,6.01
